Time;durP1;ratioP1;P1;durP2;ratioP2;P2;SDS_P1;SDS_P2;PMS_P1;PMS_P2;Temp;Humidity;BMP_temperature;BMP_pressure;BME280_temperature;BME280_humidity;BME280_pressure;Samples;Min_cycle;Max_cycle;Signal;HPM_P1;HPM_P2
2022/05/05 00:00:26;;;;;;;7.90;3.90;;;;;;;11.13;77.97;96288.28;10351813;28;96991;-66
2022/05/05 00:05:29;;;;;;;5.10;3.10;;;;;;;11.05;78.45;96276.94;10344823;28;98912;-66
2022/05/05 00:15:54;;;;;;;3.75;2.88;;;;;;;11.22;77.94;96270.88;10365427;28;98272;-66
2022/05/05 00:20:57;;;;;;;3.33;2.85;;;;;;;11.30;78.00;96284.03;10363210;28;96776;-66
2022/05/05 00:26:00;;;;;;;4.30;3.50;;;;;;;11.28;77.73;96266.84;10347406;28;100175;-66
2022/05/05 00:31:04;;;;;;;4.85;3.13;;;;;;;11.20;78.17;96267.59;10356983;28;96736;-66
2022/05/05 00:36:07;;;;;;;3.83;3.40;;;;;;;11.22;78.20;96272.66;10351616;28;100175;-66
2022/05/05 00:41:10;;;;;;;4.90;3.30;;;;;;;11.04;78.21;96263.03;10347867;28;100112;-66
2022/05/05 00:46:15;;;;;;;4.30;3.28;;;;;;;10.92;78.99;96259.84;10354478;28;99179;-66
2022/05/05 00:51:18;;;;;;;5.63;3.42;;;;;;;10.85;79.01;96261.41;10344657;28;96824;-66
2022/05/05 00:56:21;;;;;;;5.68;3.72;;;;;;;10.88;78.72;96253.28;10339121;28;98842;-66
2022/05/05 01:01:26;;;;;;;7.18;3.70;;;;;;;10.83;78.83;96247.66;10354556;28;96883;-66
2022/05/05 01:06:30;;;;;;;3.77;3.37;;;;;;;10.77;79.18;96250.88;10363721;28;96964;-66
2022/05/05 01:11:39;;;;;;;3.95;3.47;;;;;;;10.79;79.28;96256.75;10349891;28;96797;-66
2022/05/05 01:16:44;;;;;;;4.07;3.22;;;;;;;10.86;79.03;96250.00;10338012;28;97010;-66
2022/05/05 01:21:55;;;;;;;3.83;3.22;;;;;;;10.82;79.01;96253.84;10350801;28;97107;-65
2022/05/05 01:32:23;;;;;;;4.53;3.53;;;;;;;10.55;79.88;96252.13;10212467;28;97224;-66
2022/05/05 01:37:27;;;;;;;4.80;3.22;;;;;;;10.56;79.45;96243.31;10219215;28;97177;-66
2022/05/05 01:42:31;;;;;;;5.67;3.73;;;;;;;10.54;79.39;96246.06;10229587;28;97005;-65
2022/05/05 01:47:34;;;;;;;6.53;3.63;;;;;;;10.49;79.92;96240.47;10225319;28;97800;-65
2022/05/05 01:52:39;;;;;;;4.32;3.25;;;;;;;10.45;80.06;96241.72;10206484;28;99197;-66
2022/05/05 01:57:42;;;;;;;4.03;3.63;;;;;;;10.38;80.05;96238.06;10225475;28;99142;-65
2022/05/05 02:02:45;;;;;;;5.75;3.67;;;;;;;10.35;80.22;96236.56;10219313;28;96909;-65
2022/05/05 02:07:50;;;;;;;4.18;3.50;;;;;;;10.51;79.47;96235.09;10274223;28;97180;-66
2022/05/05 02:12:53;;;;;;;3.77;3.47;;;;;;;10.65;79.04;96225.94;10355714;28;97942;-66
2022/05/05 02:17:56;;;;;;;4.65;3.42;;;;;;;10.73;79.35;96224.22;10344465;28;97681;-66
2022/05/05 02:23:00;;;;;;;4.70;3.90;;;;;;;10.68;79.22;96218.59;10334973;28;97080;-66
2022/05/05 02:28:04;;;;;;;6.80;4.10;;;;;;;10.36;79.88;96226.94;10347515;28;96835;-65
2022/05/05 02:33:06;;;;;;;7.03;4.22;;;;;;;10.30;79.91;96230.94;10349067;28;98569;-65
2022/05/05 02:43:31;;;;;;;4.35;3.83;;;;;;;10.55;79.51;96228.63;10353838;28;98108;-65
2022/05/05 02:48:34;;;;;;;6.00;4.55;;;;;;;10.51;79.87;96225.47;10338466;28;99142;-65
2022/05/05 02:58:58;;;;;;;6.63;5.13;;;;;;;10.48;79.58;96217.94;10336862;28;96846;-65
2022/05/05 03:04:01;;;;;;;5.55;4.72;;;;;;;10.52;79.89;96208.81;10354440;28;97700;-66
2022/05/05 03:09:06;;;;;;;5.38;4.45;;;;;;;10.63;80.21;96209.59;10341895;28;96923;-65
2022/05/05 03:14:08;;;;;;;4.63;3.87;;;;;;;10.72;79.15;96204.28;10338732;28;96931;-65
2022/05/05 03:19:11;;;;;;;6.38;5.47;;;;;;;10.69;79.70;96206.38;10340536;28;98095;-66
2022/05/05 03:24:15;;;;;;;8.73;4.35;;;;;;;10.76;79.51;96207.44;10355585;28;97741;-66
2022/05/05 03:29:18;;;;;;;6.77;5.50;;;;;;;10.69;80.30;96211.63;10340302;28;96900;-65
2022/05/05 03:34:21;;;;;;;6.25;5.45;;;;;;;10.55;80.64;96220.78;10357457;28;97875;-65
2022/05/05 03:39:27;;;;;;;7.67;5.50;;;;;;;10.56;80.21;96218.00;10361855;28;97220;-66
2022/05/05 03:44:30;;;;;;;8.27;5.73;;;;;;;10.51;80.50;96216.81;10362862;28;97230;-65
2022/05/05 03:49:32;;;;;;;7.15;5.78;;;;;;;10.31;81.36;96219.53;10356775;28;98579;-65
2022/05/05 03:54:37;;;;;;;8.93;5.82;;;;;;;10.19;81.80;96213.69;10352203;28;98068;-66
2022/05/05 03:59:39;;;;;;;7.10;5.37;;;;;;;10.37;81.30;96215.53;10348005;28;96841;-66
2022/05/05 04:04:42;;;;;;;6.60;5.35;;;;;;;10.42;81.16;96210.69;10345027;28;97650;-65
2022/05/05 04:09:46;;;;;;;8.82;6.20;;;;;;;10.39;81.44;96217.03;10360714;28;96860;-66
2022/05/05 04:14:49;;;;;;;8.97;6.53;;;;;;;10.34;81.45;96213.19;10345425;28;96994;-65
2022/05/05 04:19:52;;;;;;;9.15;6.47;;;;;;;10.35;81.95;96214.84;10340127;28;99012;-66
2022/05/05 04:24:57;;;;;;;9.02;7.07;;;;;;;10.40;81.43;96215.22;10349150;28;96795;-65
2022/05/05 04:30:00;;;;;;;9.53;6.60;;;;;;;10.60;81.22;96216.75;10356148;28;98595;-65
2022/05/05 04:35:03;;;;;;;10.07;6.70;;;;;;;10.74;80.91;96209.38;10352623;28;96972;-66
2022/05/05 04:40:10;;;;;;;9.52;7.90;;;;;;;10.81;80.83;96210.41;10366308;28;99013;-65
2022/05/05 04:45:13;;;;;;;12.25;8.70;;;;;;;10.80;80.95;96224.44;10359617;28;100651;-65
2022/05/05 04:50:18;;;;;;;10.23;8.17;;;;;;;10.72;81.27;96232.19;10353345;28;96890;-65
2022/05/05 04:55:22;;;;;;;11.25;8.02;;;;;;;10.57;81.73;96227.50;10353052;28;96797;-65
2022/05/05 05:00:25;;;;;;;12.10;9.93;;;;;;;10.55;81.70;96232.03;10359422;28;97433;-65
2022/05/05 05:05:27;;;;;;;11.35;8.55;;;;;;;10.66;81.65;96238.03;10358169;28;97143;-65
2022/05/05 05:10:32;;;;;;;10.57;8.80;;;;;;;10.71;81.28;96248.84;10369468;28;96958;-65
2022/05/05 05:15:34;;;;;;;10.37;8.60;;;;;;;10.81;80.87;96254.84;10351467;28;96844;-65
2022/05/05 05:20:37;;;;;;;10.63;8.27;;;;;;;10.92;80.92;96264.25;10338437;28;97926;-66
2022/05/05 05:25:42;;;;;;;11.68;8.13;;;;;;;10.97;80.43;96265.44;10356103;28;96844;-66
2022/05/05 05:30:44;;;;;;;11.97;8.80;;;;;;;11.04;80.54;96272.69;10356313;28;98474;-66
2022/05/05 05:35:47;;;;;;;10.65;8.45;;;;;;;11.06;80.48;96281.19;10352635;28;98700;-66
2022/05/05 05:40:52;;;;;;;13.98;9.77;;;;;;;10.99;80.95;96292.25;10353668;28;96980;-65
2022/05/05 05:45:54;;;;;;;10.80;9.33;;;;;;;10.98;81.24;96300.22;10348025;28;97911;-66
2022/05/05 05:50:58;;;;;;;9.93;7.95;;;;;;;10.91;81.36;96300.03;10344645;28;96825;-66
2022/05/05 05:56:02;;;;;;;8.82;7.18;;;;;;;10.85;81.87;96300.59;10358639;28;96696;-65
2022/05/05 06:01:06;;;;;;;7.60;6.77;;;;;;;11.04;81.30;96299.66;10360497;28;96988;-65
2022/05/05 06:06:09;;;;;;;9.27;6.60;;;;;;;11.08;81.21;96300.97;10359314;28;100794;-66
2022/05/05 06:11:14;;;;;;;8.55;6.20;;;;;;;11.07;81.16;96301.97;10363951;28;96772;-65
2022/05/05 06:16:17;;;;;;;7.00;5.93;;;;;;;11.10;81.14;96309.53;10360397;28;99263;-65
2022/05/05 06:21:20;;;;;;;8.82;6.72;;;;;;;11.10;81.52;96308.69;10355079;28;97185;-65
2022/05/05 06:26:27;;;;;;;8.18;6.25;;;;;;;10.97;81.63;96315.09;10349418;28;97931;-65
2022/05/05 06:31:30;;;;;;;6.97;5.85;;;;;;;10.93;81.71;96319.00;10348486;28;97097;-65
2022/05/05 06:36:33;;;;;;;7.97;6.32;;;;;;;10.99;81.93;96331.44;10347184;28;98321;-65
2022/05/05 06:41:37;;;;;;;8.40;5.82;;;;;;;11.09;81.59;96333.19;10340648;28;96760;-65
2022/05/05 06:46:41;;;;;;;6.63;6.03;;;;;;;11.10;81.63;96334.81;10336170;28;97802;-65
2022/05/05 06:51:44;;;;;;;8.02;5.60;;;;;;;11.22;81.16;96333.63;10335995;28;96862;-65
2022/05/05 06:56:48;;;;;;;7.43;5.13;;;;;;;11.27;81.06;96341.84;10339668;28;97926;-67
2022/05/05 07:01:56;;;;;;;6.57;5.73;;;;;;;11.17;81.44;96346.31;10365701;28;97769;-65
2022/05/05 07:06:59;;;;;;;7.53;5.75;;;;;;;11.22;81.35;96349.31;10373262;28;97002;-65
2022/05/05 07:12:05;;;;;;;6.28;4.80;;;;;;;11.21;81.00;96352.91;10353385;28;97146;-65
2022/05/05 07:17:09;;;;;;;5.28;4.70;;;;;;;11.23;80.92;96353.59;10344077;28;101315;-65
2022/05/05 07:22:13;;;;;;;5.97;4.75;;;;;;;11.31;80.90;96364.16;10351701;28;96880;-65
2022/05/05 07:27:17;;;;;;;5.63;4.72;;;;;;;11.32;80.59;96357.13;10349530;28;96926;-65
2022/05/05 07:32:20;;;;;;;6.57;4.83;;;;;;;11.27;80.87;96357.53;10344792;28;97046;-65
2022/05/05 07:37:23;;;;;;;5.68;5.05;;;;;;;11.31;80.92;96366.78;10344708;28;96872;-65
2022/05/05 07:42:27;;;;;;;6.72;5.20;;;;;;;11.33;80.61;96357.00;10359692;28;96991;-65
2022/05/05 07:47:31;;;;;;;6.27;4.93;;;;;;;11.35;80.29;96359.47;10346117;28;96936;-65
2022/05/05 07:52:34;;;;;;;6.10;4.22;;;;;;;11.39;80.31;96365.22;10342732;28;99500;-65
2022/05/05 07:57:46;;;;;;;4.47;3.63;;;;;;;11.29;79.81;96366.06;10347863;28;97058;-65
2022/05/05 08:02:49;;;;;;;9.30;3.80;;;;;;;11.27;80.06;96365.38;10346839;28;96978;-65
2022/05/05 08:07:52;;;;;;;4.43;3.45;;;;;;;11.48;79.84;96372.16;10342406;28;96745;-65
2022/05/05 08:12:57;;;;;;;4.22;3.17;;;;;;;11.67;79.05;96374.59;10344685;28;96903;-66
2022/05/05 08:17:59;;;;;;;3.57;2.97;;;;;;;11.88;78.80;96376.06;10346832;28;96755;-66
2022/05/05 08:23:02;;;;;;;4.82;2.95;;;;;;;11.91;78.93;96384.44;10343326;28;96958;-65
2022/05/05 08:33:28;;;;;;;4.18;2.78;;;;;;;11.88;78.82;96404.88;10346184;28;97010;-65
2022/05/05 08:38:31;;;;;;;3.88;2.85;;;;;;;11.81;79.13;96402.03;10343904;28;97551;-65
2022/05/05 08:43:36;;;;;;;4.70;3.13;;;;;;;11.83;78.70;96407.97;10341492;28;96776;-65
2022/05/05 08:49:05;;;;;;;3.08;2.40;;;;;;;11.99;78.25;96409.88;10345828;28;96795;-66
2022/05/05 08:54:13;;;;;;;3.47;2.53;;;;;;;12.37;77.74;96415.69;10345255;28;97234;-66
2022/05/05 08:59:17;;;;;;;2.80;2.47;;;;;;;12.61;77.38;96414.16;10343316;28;96864;-66
2022/05/05 09:04:20;;;;;;;4.10;2.67;;;;;;;12.91;76.32;96422.53;10341823;28;96983;-65
2022/05/05 09:09:28;;;;;;;3.47;2.55;;;;;;;12.96;76.11;96428.13;10345053;28;97083;-65
2022/05/05 09:14:37;;;;;;;3.58;2.40;;;;;;;12.92;75.72;96432.06;10343188;28;97015;-65
2022/05/05 09:19:43;;;;;;;4.00;2.90;;;;;;;12.84;76.57;96436.25;10339104;28;97083;-66
2022/05/05 09:24:49;;;;;;;4.38;3.00;;;;;;;13.07;76.14;96433.09;10345785;28;96768;-66
2022/05/05 09:30:12;;;;;;;3.47;2.60;;;;;;;13.30;74.86;96435.94;10344104;28;96910;-66
2022/05/05 09:35:16;;;;;;;3.25;2.78;;;;;;;13.36;75.31;96431.84;10340472;28;97311;-65
2022/05/05 09:40:20;;;;;;;3.27;2.80;;;;;;;13.46;73.96;96432.53;10344094;28;98435;-66
2022/05/05 09:45:26;;;;;;;3.97;2.95;;;;;;;13.61;74.17;96438.00;10343302;28;97011;-66
2022/05/05 09:50:30;;;;;;;2.70;2.50;;;;;;;13.76;73.67;96444.25;10341531;28;96942;-65
2022/05/05 10:00:58;;;;;;;5.80;3.13;;;;;;;14.11;73.25;96444.09;10342359;28;96920;-65
2022/05/05 10:06:03;;;;;;;4.07;3.10;;;;;;;14.07;72.78;96442.78;10342577;28;101157;-66
2022/05/05 10:11:07;;;;;;;3.88;2.85;;;;;;;14.03;72.96;96451.97;10338453;28;97143;-66
2022/05/05 10:16:14;;;;;;;3.65;3.13;;;;;;;13.92;73.14;96456.56;10353641;28;97741;-66
2022/05/05 10:21:31;;;;;;;4.15;2.78;;;;;;;13.97;72.70;96462.16;10344055;28;97800;-66
2022/05/05 10:26:35;;;;;;;3.78;3.20;;;;;;;14.25;72.87;96459.19;10341974;28;96834;-66
2022/05/05 10:31:47;;;;;;;3.20;2.47;;;;;;;14.49;72.01;96463.66;10338286;28;96772;-67
2022/05/05 10:37:08;;;;;;;3.65;2.97;;;;;;;14.53;71.29;96461.50;10343320;28;96929;-66
2022/05/05 10:42:23;;;;;;;7.40;3.10;;;;;;;14.41;71.77;96454.94;10341776;28;96947;-66
2022/05/05 10:47:47;;;;;;;3.38;2.95;;;;;;;14.33;71.76;96464.50;10337910;28;96869;-66
2022/05/05 10:52:52;;;;;;;4.23;3.10;;;;;;;14.25;71.29;96448.69;10337128;28;96960;-66
2022/05/05 10:57:55;;;;;;;3.90;3.15;;;;;;;14.40;71.37;96450.66;10342709;28;96838;-66
2022/05/05 11:03:18;;;;;;;5.55;3.13;;;;;;;14.53;70.52;96453.63;10341779;28;97150;-65
2022/05/05 11:08:35;;;;;;;3.97;3.00;;;;;;;14.63;70.41;96453.44;10338681;28;96778;-66
2022/05/05 11:13:40;;;;;;;4.13;3.10;;;;;;;14.60;70.07;96449.31;10353121;28;98486;-66
2022/05/05 11:24:11;;;;;;;3.83;2.70;;;;;;;14.70;69.71;96452.59;10341476;28;97115;-65
2022/05/05 11:29:16;;;;;;;4.57;3.00;;;;;;;14.79;69.45;96447.31;10336758;28;97224;-65
2022/05/05 11:34:21;;;;;;;3.45;2.72;;;;;;;15.15;69.05;96442.41;10338510;28;96798;-66
2022/05/05 11:39:24;;;;;;;3.63;2.70;;;;;;;15.28;68.06;96447.94;10342915;28;96940;-66
2022/05/05 11:44:27;;;;;;;5.00;3.38;;;;;;;15.38;68.18;96447.72;10345394;28;102675;-65
2022/05/05 11:49:33;;;;;;;3.67;2.92;;;;;;;15.57;67.18;96443.84;10343833;28;96926;-66
2022/05/05 11:54:35;;;;;;;3.85;3.45;;;;;;;15.69;66.72;96450.38;10347519;28;96768;-66
2022/05/05 12:05:00;;;;;;;5.28;3.67;;;;;;;15.48;66.84;96442.25;10343016;28;97195;-66
2022/05/05 12:10:07;;;;;;;8.32;3.75;;;;;;;15.23;65.26;96438.91;10346018;28;96861;-65
2022/05/05 12:15:11;;;;;;;5.32;3.92;;;;;;;15.27;65.76;96434.97;10348327;28;97008;-66
2022/05/05 12:20:18;;;;;;;5.17;3.93;;;;;;;15.42;65.59;96427.13;10342734;28;96838;-66
2022/05/05 12:25:23;;;;;;;4.75;3.75;;;;;;;15.25;64.81;96429.88;10344471;28;96727;-66
2022/05/05 12:30:32;;;;;;;4.40;3.80;;;;;;;15.17;65.79;96445.69;10344224;28;97042;-66
2022/05/05 12:35:38;;;;;;;4.95;3.85;;;;;;;14.94;65.94;96440.38;10345262;28;96791;-65
2022/05/05 12:40:43;;;;;;;6.32;4.35;;;;;;;14.83;65.37;96440.72;10340590;28;96719;-65
2022/05/05 12:45:47;;;;;;;6.45;4.63;;;;;;;14.83;66.14;96451.25;10346954;28;96767;-65
2022/05/05 12:50:53;;;;;;;5.35;4.30;;;;;;;14.90;66.19;96439.03;10343999;28;97096;-65
2022/05/05 13:01:24;;;;;;;8.15;5.10;;;;;;;15.08;65.47;96457.25;10204210;28;97336;-65
2022/05/05 13:06:30;;;;;;;7.30;4.28;;;;;;;14.88;64.98;96446.28;10201979;28;97144;-66
2022/05/05 13:11:33;;;;;;;8.07;4.10;;;;;;;14.82;66.68;96460.09;10201639;28;97081;-66
2022/05/05 13:16:37;;;;;;;5.18;4.25;;;;;;;14.86;65.72;96464.06;10204812;28;96969;-66
2022/05/05 13:21:41;;;;;;;6.55;4.55;;;;;;;14.84;64.76;96455.53;10201719;28;96974;-65
2022/05/05 13:26:46;;;;;;;7.23;5.40;;;;;;;14.79;65.40;96460.47;10200990;28;97101;-65
2022/05/05 13:31:50;;;;;;;7.05;5.68;;;;;;;14.48;65.36;96466.44;10203467;28;97174;-66
2022/05/05 13:36:54;;;;;;;8.38;5.80;;;;;;;14.27;65.37;96465.09;10267302;28;96982;-66
2022/05/05 13:41:57;;;;;;;7.00;4.78;;;;;;;14.05;66.07;96466.56;10343209;28;96792;-66
2022/05/05 13:47:00;;;;;;;7.97;5.78;;;;;;;14.04;66.26;96458.84;10339039;28;96829;-66
2022/05/05 13:52:05;;;;;;;7.57;5.90;;;;;;;14.64;65.88;96450.63;10343004;28;97880;-65
2022/05/05 13:57:13;;;;;;;6.57;5.30;;;;;;;15.05;64.39;96447.88;10343721;28;96849;-65
2022/05/05 14:02:16;;;;;;;8.93;5.68;;;;;;;14.99;63.12;96443.31;10339154;28;96775;-65
2022/05/05 14:12:10;;;;;;;6.68;5.32;;;;;;;15.15;63.90;96458.22;10341143;28;96763;-66
2022/05/05 14:12:45;;;;;;;7.30;5.45;;;;;;;15.23;62.87;96455.50;10344682;28;96818;-65
2022/05/05 14:17:48;;;;;;;6.97;5.43;;;;;;;15.56;62.78;96451.91;10342523;28;101146;-65
2022/05/05 14:22:53;;;;;;;6.17;5.20;;;;;;;15.82;61.54;96444.50;10337167;28;96969;-65
2022/05/05 14:27:56;;;;;;;10.57;5.68;;;;;;;16.63;61.92;96442.19;10341911;28;96859;-65
2022/05/05 14:32:58;;;;;;;6.55;5.05;;;;;;;16.80;61.75;96439.41;10342177;28;97136;-66
2022/05/05 14:38:04;;;;;;;5.68;4.65;;;;;;;16.33;59.83;96446.59;10337765;28;97243;-66
2022/05/05 14:43:07;;;;;;;6.05;4.47;;;;;;;15.86;60.25;96445.81;10341143;28;96846;-66
2022/05/05 14:48:11;;;;;;;4.97;4.30;;;;;;;15.64;60.04;96446.63;10342263;28;97350;-66
2022/05/05 14:53:15;;;;;;;5.75;4.30;;;;;;;15.75;60.30;96448.84;10339255;28;96882;-66
2022/05/05 14:58:18;;;;;;;8.63;4.88;;;;;;;16.33;59.79;96453.66;10339336;28;99528;-66
2022/05/05 15:03:21;;;;;;;7.20;4.47;;;;;;;16.89;57.77;96453.34;10339804;28;96922;-66
2022/05/05 15:08:26;;;;;;;5.13;4.40;;;;;;;16.62;57.83;96456.38;10338676;28;96901;-66
2022/05/05 15:13:29;;;;;;;7.32;4.47;;;;;;;15.98;57.55;96453.28;10339048;28;96992;-66
2022/05/05 15:18:32;;;;;;;5.57;4.13;;;;;;;15.76;58.80;96450.50;10348387;28;97631;-66
2022/05/05 15:23:37;;;;;;;5.18;4.35;;;;;;;15.88;58.10;96454.34;10347257;28;97043;-66
2022/05/05 15:28:41;;;;;;;5.45;4.32;;;;;;;16.18;57.25;96453.66;10343115;28;96843;-66
2022/05/05 15:33:45;;;;;;;8.60;4.63;;;;;;;16.20;57.51;96451.66;10348562;28;96875;-66
2022/05/05 15:38:50;;;;;;;5.63;4.10;;;;;;;15.80;57.96;96440.44;10363776;28;97332;-66
2022/05/05 15:43:54;;;;;;;6.65;5.05;;;;;;;15.26;59.16;96449.91;10368073;28;97316;-66
2022/05/05 15:48:57;;;;;;;7.28;4.72;;;;;;;14.50;60.33;96449.50;10366754;28;96868;-65
2022/05/05 15:54:03;;;;;;;6.67;4.80;;;;;;;14.59;60.36;96447.66;10356979;28;96740;-66
2022/05/05 15:59:05;;;;;;;6.75;5.03;;;;;;;14.56;59.95;96453.28;10369885;28;96857;-66
2022/05/05 16:04:08;;;;;;;6.55;5.10;;;;;;;14.07;60.63;96454.13;10374696;28;97453;-66
2022/05/05 16:09:13;;;;;;;7.05;5.22;;;;;;;13.85;60.85;96450.34;10372471;28;96940;-65
2022/05/05 16:14:16;;;;;;;7.97;5.05;;;;;;;13.99;60.52;96446.22;10369061;28;97012;-65
2022/05/05 16:19:19;;;;;;;6.78;4.72;;;;;;;13.58;61.34;96449.63;10375456;28;97183;-66
2022/05/05 16:30:07;;;;;;;7.05;5.18;;;;;;;13.05;62.55;96451.59;10369626;28;96789;-66
2022/05/05 16:35:07;;;;;;;6.75;5.25;;;;;;;12.84;63.26;96451.16;10371527;28;97083;-66
2022/05/05 16:40:15;;;;;;;7.13;5.05;;;;;;;12.69;62.88;96453.53;10373433;28;97319;-66
2022/05/05 16:45:18;;;;;;;6.88;4.45;;;;;;;12.77;62.52;96443.09;10367068;28;96763;-66
2022/05/05 16:50:23;;;;;;;8.48;5.18;;;;;;;12.83;62.78;96450.31;10370630;28;96772;-66
2022/05/05 16:55:27;;;;;;;5.15;4.65;;;;;;;12.78;63.04;96447.34;10367395;28;97956;-66
2022/05/05 17:00:30;;;;;;;8.85;5.45;;;;;;;12.72;63.48;96458.47;10370119;28;97030;-66
2022/05/05 17:05:33;;;;;;;7.85;5.95;;;;;;;12.90;63.66;96457.59;10369782;28;97155;-66
2022/05/05 17:10:38;;;;;;;7.18;5.07;;;;;;;12.73;64.53;96460.09;10369273;28;97114;-66
2022/05/05 17:15:42;;;;;;;7.65;4.97;;;;;;;12.65;64.52;96457.47;10362097;28;96903;-66
2022/05/05 17:20:45;;;;;;;5.68;3.33;;;;;;;12.68;63.71;96462.38;10364825;28;98136;-66
2022/05/05 17:25:49;;;;;;;3.17;2.70;;;;;;;12.74;64.67;96466.19;10354476;28;98113;-66
2022/05/05 17:30:52;;;;;;;4.13;2.87;;;;;;;12.79;63.68;96469.16;10362425;28;97055;-67
2022/05/05 17:35:55;;;;;;;8.55;7.65;;;;;;;12.66;63.65;96464.31;10352331;28;99907;-66
2022/05/05 17:41:00;;;;;;;3.92;3.50;;;;;;;12.56;63.21;96474.09;10352939;28;96915;-66
2022/05/05 17:51:25;;;;;;;4.00;2.80;;;;;;;12.29;63.45;96483.75;10350723;28;97239;-66
2022/05/05 17:56:29;;;;;;;3.90;3.27;;;;;;;12.15;64.11;96479.06;10364367;28;96875;-66
2022/05/05 18:01:32;;;;;;;5.60;4.00;;;;;;;12.08;63.92;96491.94;10359039;28;97272;-65
2022/05/05 18:06:35;;;;;;;3.65;2.75;;;;;;;11.96;64.58;96488.72;10353196;28;96998;-66
2022/05/05 18:11:41;;;;;;;3.53;2.60;;;;;;;11.87;64.76;96489.63;10369144;28;96793;-66
2022/05/05 18:16:44;;;;;;;5.07;2.80;;;;;;;11.71;65.32;96491.09;10343226;28;97954;-66
2022/05/05 18:21:48;;;;;;;4.35;3.05;;;;;;;11.57;66.10;96488.97;10343870;28;96816;-65
2022/05/05 18:26:52;;;;;;;3.22;2.80;;;;;;;11.55;66.38;96481.31;10348244;28;97330;-66
2022/05/05 18:31:57;;;;;;;5.40;3.63;;;;;;;11.47;66.69;96493.47;10378429;28;97913;-66
2022/05/05 18:36:59;;;;;;;;;;;;;;;11.45;66.25;96490.16;10345995;28;96768;-65
2022/05/05 18:42:04;;;;;;;5.47;3.88;;;;;;;11.42;66.83;96490.47;10362583;28;97116;-66
2022/05/05 18:47:08;;;;;;;4.88;3.85;;;;;;;11.32;67.53;96483.47;10341854;28;98950;-65
2022/05/05 18:52:11;;;;;;;4.97;3.88;;;;;;;11.34;68.08;96488.56;10342459;28;97018;-64
2022/05/05 18:57:15;;;;;;;4.32;3.47;;;;;;;11.33;68.55;96487.75;10340719;28;98874;-65
2022/05/05 19:02:18;;;;;;;3.63;3.03;;;;;;;11.29;68.57;96491.59;10345411;28;97698;-65
2022/05/05 19:07:21;;;;;;;5.45;3.90;;;;;;;11.32;68.60;96491.34;10345866;28;96863;-66
2022/05/05 19:12:26;;;;;;;5.40;3.92;;;;;;;11.30;68.92;96498.47;10345568;28;97178;-66
2022/05/05 19:17:28;;;;;;;5.77;4.60;;;;;;;11.31;68.57;96509.75;10342354;28;102357;-66
2022/05/05 19:22:32;;;;;;;6.00;4.55;;;;;;;11.26;68.79;96512.81;10346519;28;98893;-66
2022/05/05 19:27:37;;;;;;;6.10;4.53;;;;;;;11.20;69.18;96513.38;10348556;28;96883;-66
2022/05/05 19:32:45;;;;;;;6.47;4.70;;;;;;;11.23;69.22;96513.09;10344305;28;98637;-66
2022/05/05 19:37:48;;;;;;;5.43;4.07;;;;;;;11.07;70.11;96513.72;10347675;28;97077;-67
2022/05/05 19:42:52;;;;;;;6.10;4.57;;;;;;;10.99;70.73;96524.88;10343141;28;97205;-66
2022/05/05 19:47:55;;;;;;;35.63;23.87;;;;;;;10.97;70.91;96529.44;10338219;28;96915;-65
2022/05/05 19:52:58;;;;;;;34.05;23.83;;;;;;;11.18;70.96;96531.03;10336906;28;98596;-65
2022/05/05 20:03:23;;;;;;;8.18;5.05;;;;;;;11.09;71.45;96542.34;10343698;28;97126;-65
2022/05/05 20:08:26;;;;;;;7.88;5.25;;;;;;;11.03;71.77;96538.50;10344064;28;97521;-65
2022/05/05 20:13:34;;;;;;;6.72;4.50;;;;;;;10.99;72.11;96543.19;10350804;28;97259;-65
2022/05/05 20:18:37;;;;;;;8.13;4.88;;;;;;;10.91;72.58;96539.63;10356287;28;96778;-65
2022/05/05 20:23:42;;;;;;;7.53;5.13;;;;;;;10.84;72.84;96536.75;10361001;28;97936;-65
2022/05/05 20:28:46;;;;;;;;;;;;;;;10.83;72.28;96534.31;10366766;28;96740;-65
2022/05/05 20:33:49;;;;;;;8.32;5.13;;;;;;;10.80;72.39;96536.22;10357629;28;98117;-65
2022/05/05 20:38:57;;;;;;;7.90;4.93;;;;;;;10.71;73.27;96542.31;10354956;28;96834;-65
2022/05/05 20:44:01;;;;;;;7.30;4.70;;;;;;;10.73;73.68;96536.94;10365229;28;97042;-65
2022/05/05 20:49:04;;;;;;;6.43;4.80;;;;;;;10.73;73.54;96539.56;10348007;28;100183;-66
2022/05/05 20:54:07;;;;;;;10.20;7.75;;;;;;;10.87;73.44;96543.50;10354020;28;97391;-64
2022/05/05 20:59:17;;;;;;;6.28;5.43;;;;;;;10.93;73.19;96537.69;10351740;28;101088;-63
2022/05/05 21:04:20;;;;;;;7.28;4.95;;;;;;;10.97;72.89;96545.13;10362297;28;99103;-65
2022/05/05 21:09:23;;;;;;;8.98;5.50;;;;;;;10.98;72.62;96538.94;10350813;28;97087;-65
2022/05/05 21:14:29;;;;;;;7.13;4.60;;;;;;;10.93;72.47;96529.84;10355031;28;97172;-65
2022/05/05 21:19:32;;;;;;;7.78;4.90;;;;;;;10.82;72.74;96528.25;10352630;28;98039;-64
2022/05/05 21:29:58;;;;;;;5.93;4.05;;;;;;;10.70;72.56;96524.97;10351917;28;96836;-66
2022/05/05 21:35:01;;;;;;;6.32;3.72;;;;;;;10.70;72.72;96524.97;10357330;28;96913;-65
2022/05/05 21:40:05;;;;;;;5.93;3.55;;;;;;;10.69;72.69;96518.13;10350457;28;97883;-65
2022/05/05 21:45:10;;;;;;;4.75;3.65;;;;;;;10.68;72.26;96523.47;10356995;28;99920;-65
2022/05/05 21:50:14;;;;;;;4.40;3.42;;;;;;;10.66;72.27;96509.75;10359231;28;97068;-65
2022/05/05 21:55:17;;;;;;;3.83;3.00;;;;;;;10.60;71.99;96517.19;10347060;28;96745;-65
2022/05/05 22:00:40;;;;;;;6.63;4.10;;;;;;;10.48;72.48;96522.69;10354564;28;98688;-65
2022/05/05 22:05:43;;;;;;;5.40;3.90;;;;;;;10.36;73.07;96514.19;10336585;28;96947;-65
2022/05/05 22:10:50;;;;;;;5.47;3.90;;;;;;;10.26;72.90;96514.19;10345439;28;96861;-65
2022/05/05 22:15:56;;;;;;;4.68;3.78;;;;;;;10.22;73.49;96507.63;10360062;28;98164;-65
2022/05/05 22:20:59;;;;;;;5.25;4.13;;;;;;;10.17;73.42;96504.59;10363234;28;96868;-65
2022/05/05 22:26:03;;;;;;;6.38;4.43;;;;;;;10.15;73.82;96517.78;10348110;28;97328;-65
2022/05/05 22:31:07;;;;;;;10.50;5.23;;;;;;;10.12;73.59;96512.84;10350010;28;96912;-65
2022/05/05 22:36:10;;;;;;;8.07;5.77;;;;;;;9.95;73.84;96511.72;10366614;28;100766;-65
2022/05/05 22:46:37;;;;;;;7.80;5.57;;;;;;;9.62;75.49;96500.72;10355551;28;98609;-65
2022/05/05 22:51:41;;;;;;;7.60;5.82;;;;;;;9.56;75.33;96500.44;10349375;28;96940;-65
2022/05/05 22:56:43;;;;;;;6.32;5.22;;;;;;;9.35;75.67;96493.53;10350173;28;98433;-64
2022/05/05 23:01:47;;;;;;;20.33;12.63;;;;;;;9.18;75.88;96494.16;10346354;28;98234;-65
2022/05/05 23:06:51;;;;;;;12.10;7.47;;;;;;;9.07;76.61;96477.66;10344460;28;100515;-64
2022/05/05 23:11:53;;;;;;;12.57;7.57;;;;;;;9.00;76.10;96483.53;10353181;28;97171;-65
2022/05/05 23:16:58;;;;;;;7.43;5.40;;;;;;;8.88;77.04;96481.03;10339200;28;97694;-65
2022/05/05 23:22:00;;;;;;;10.73;7.33;;;;;;;8.79;77.30;96476.59;10344536;28;97484;-64
2022/05/05 23:27:04;;;;;;;11.90;7.97;;;;;;;8.84;77.80;96468.38;10346832;28;103598;-65
2022/05/05 23:32:09;;;;;;;11.73;8.65;;;;;;;8.79;77.55;96465.34;10335427;28;99088;-65
2022/05/05 23:37:12;;;;;;;7.72;5.18;;;;;;;8.90;77.90;96467.88;10354309;28;96905;-64
2022/05/05 23:42:15;;;;;;;7.47;4.93;;;;;;;9.06;77.57;96462.16;10350582;28;100628;-65
2022/05/05 23:47:20;;;;;;;7.40;5.03;;;;;;;9.18;77.49;96460.28;10343942;28;99911;-65
2022/05/05 23:52:23;;;;;;;8.43;5.70;;;;;;;9.18;76.90;96458.50;10350464;28;96871;-64
2022/05/05 23:57:26;;;;;;;9.80;5.80;;;;;;;9.21;76.80;96454.78;10349157;28;97005;-64
